Detroit, Michigan
Traffic Map
Current Weather Conditions
Detroit, Michigan
Few Clouds
Few Clouds
55°
Feels Like: 55°
Wind Chill: 55° Ceiling: Unl
Heat Index: 55° Visibility: 15mi
Dew Point: 41° Wind: 2mph
Humidity: 58% Direction: 290° (WNW)
Pressure: 30.18in Gusts: 0mph
Raw Report DataCYQG 231800Z 29002KT 15SM FEW020 FEW280 13/05 A3018 RMK CF1CI2 CF TR SLP224
Traffic Incident Summary
Active as of:
Severity:
Category:
InformationThere was an issue retrieving the traffic information for this location. Please try a different location or try again shortly.
Advertisements
Track Severe Weather on mobile